createdAt,value
2023-03-07T00:00:16.303Z,13.50
2023-03-07T00:01:32.244Z,13.65
2023-03-07T00:02:34.831Z,12.30
2023-03-07T00:03:38.675Z,14.15
2023-03-07T00:04:45.589Z,13.23
2023-03-07T00:05:48.686Z,13.00
2023-03-07T00:06:51.327Z,11.68
2023-03-07T00:07:53.872Z,11.65
2023-03-07T00:09:01.995Z,11.48
2023-03-07T00:10:04.956Z,10.82
2023-03-07T00:11:08.960Z,10.38
2023-03-07T00:12:11.617Z,9.60
2023-03-07T00:13:14.094Z,10.25
2023-03-07T00:14:16.638Z,8.95
2023-03-07T00:15:19.119Z,9.95
2023-03-07T00:16:23.496Z,8.73
2023-03-07T00:17:26.140Z,8.82
2023-03-07T00:18:29.059Z,8.70
2023-03-07T00:19:31.535Z,9.05
2023-03-07T00:20:34.198Z,10.88
2023-03-07T00:21:36.775Z,8.77
2023-03-07T00:22:39.367Z,8.50
2023-03-07T00:23:43.860Z,8.43
2023-03-07T00:24:48.693Z,8.65
2023-03-07T00:25:59.273Z,9.18
2023-03-07T00:27:01.883Z,9.40
2023-03-07T00:28:04.477Z,9.23
2023-03-07T00:29:08.275Z,8.85
2023-03-07T00:30:12.636Z,9.10
2023-03-07T00:31:15.821Z,9.38
2023-03-07T00:32:18.834Z,8.52
2023-03-07T00:33:21.975Z,9.48
2023-03-07T00:34:24.458Z,8.98
2023-03-07T00:35:26.964Z,9.00
2023-03-07T00:36:29.737Z,9.93
2023-03-07T00:37:32.220Z,9.48
2023-03-07T00:38:35.434Z,9.43
2023-03-07T00:39:38.000Z,10.63
2023-03-07T00:40:40.686Z,10.15
2023-03-07T00:41:43.353Z,9.75
2023-03-07T00:42:45.889Z,9.52
2023-03-07T00:43:48.973Z,9.15
2023-03-07T00:44:51.517Z,10.88
2023-03-07T00:45:54.554Z,10.15
2023-03-07T00:46:57.189Z,10.07
2023-03-07T00:48:00.030Z,11.15
2023-03-07T00:49:02.606Z,10.68
2023-03-07T00:50:05.632Z,10.18
2023-03-07T00:51:10.301Z,10.68
2023-03-07T00:52:12.934Z,9.38
2023-03-07T00:53:15.512Z,9.75
2023-03-07T00:54:18.253Z,9.98
2023-03-07T00:55:21.022Z,8.95
2023-03-07T00:56:25.280Z,9.43
2023-03-07T00:57:27.954Z,10.13
2023-03-07T00:58:33.012Z,9.50
2023-03-07T00:59:35.624Z,9.18
2023-03-07T01:00:38.298Z,9.32
2023-03-07T01:01:41.199Z,10.48
2023-03-07T01:02:43.989Z,9.63
2023-03-07T01:03:49.703Z,9.52
2023-03-07T01:04:52.605Z,9.52
2023-03-07T01:05:55.212Z,9.27
2023-03-07T01:06:58.350Z,9.55
2023-03-07T01:08:01.080Z,9.85
2023-03-07T01:09:08.507Z,9.02
2023-03-07T01:10:11.523Z,9.63
2023-03-07T01:11:14.414Z,9.00
2023-03-07T01:12:16.921Z,9.20
2023-03-07T01:13:20.742Z,9.40
2023-03-07T01:14:23.447Z,10.88
2023-03-07T01:15:26.219Z,9.32
2023-03-07T01:16:31.860Z,10.20
2023-03-07T01:17:34.714Z,9.07
2023-03-07T01:18:37.648Z,9.90
2023-03-07T01:19:40.758Z,9.75
2023-03-07T01:20:43.690Z,10.32
2023-03-07T01:21:46.252Z,9.23
2023-03-07T01:22:48.931Z,10.40
2023-03-07T01:23:51.892Z,9.07
2023-03-07T01:24:54.535Z,9.38
2023-03-07T01:25:56.998Z,10.52
2023-03-07T01:26:59.544Z,11.55
2023-03-07T01:28:04.119Z,10.00
2023-03-07T01:29:07.477Z,10.98
2023-03-07T01:30:12.239Z,11.05
2023-03-07T01:31:14.789Z,10.52
2023-03-07T01:32:17.644Z,12.60
2023-03-07T01:33:20.177Z,11.70
2023-03-07T01:34:23.281Z,12.82
2023-03-07T01:35:27.940Z,13.35
2023-03-07T01:36:34.223Z,13.95
2023-03-07T01:37:40.447Z,16.38
2023-03-07T01:38:44.043Z,17.58
2023-03-07T01:39:51.736Z,16.25
2023-03-07T01:40:54.516Z,16.40
2023-03-07T01:41:57.109Z,16.90
2023-03-07T01:43:21.761Z,16.45
2023-03-07T01:44:26.649Z,15.27
2023-03-07T01:45:35.135Z,14.90
2023-03-07T01:46:44.915Z,13.65
2023-03-07T01:47:48.497Z,14.60
2023-03-07T01:48:56.404Z,12.77
2023-03-07T01:50:02.444Z,13.23
2023-03-07T01:51:07.120Z,11.95
2023-03-07T01:52:13.447Z,11.93
2023-03-07T01:53:19.708Z,13.00
2023-03-07T01:54:23.319Z,11.73
2023-03-07T01:55:30.183Z,11.88
2023-03-07T01:56:38.193Z,10.60
2023-03-07T01:57:42.843Z,10.95
2023-03-07T01:58:45.945Z,11.40
2023-03-07T01:59:51.375Z,10.95
2023-03-07T02:00:54.065Z,10.63
2023-03-07T02:01:59.626Z,10.90
2023-03-07T02:03:10.859Z,9.57
2023-03-07T02:04:20.063Z,12.15
2023-03-07T02:05:29.319Z,11.55
2023-03-07T02:06:34.511Z,11.40
2023-03-07T02:07:50.620Z,10.63
2023-03-07T02:08:57.155Z,11.38
2023-03-07T02:10:00.438Z,10.77
2023-03-07T02:11:03.604Z,12.60
2023-03-07T02:12:07.718Z,11.63
2023-03-07T02:13:11.671Z,12.70
2023-03-07T02:14:15.003Z,12.35
2023-03-07T02:15:17.542Z,13.88
2023-03-07T02:16:20.196Z,12.52
2023-03-07T02:17:24.451Z,12.02
2023-03-07T02:18:30.186Z,12.82
2023-03-07T02:20:00.243Z,15.05
2023-03-07T02:21:30.215Z,9.37
2023-03-07T02:22:32.763Z,11.77
2023-03-07T02:23:50.190Z,12.88
2023-03-07T02:25:10.728Z,12.93
2023-03-07T02:26:21.664Z,12.80
2023-03-07T02:27:26.229Z,12.73
2023-03-07T02:28:29.250Z,13.18
2023-03-07T02:29:31.972Z,14.93
2023-03-07T02:30:37.230Z,15.05
2023-03-07T02:31:39.947Z,14.98
2023-03-07T02:32:42.581Z,13.38
2023-03-07T02:33:45.214Z,14.02
2023-03-07T02:34:48.127Z,14.38
2023-03-07T02:36:02.378Z,13.23
2023-03-07T02:37:10.185Z,13.73
2023-03-07T02:38:12.750Z,12.77
2023-03-07T02:39:15.421Z,14.25
2023-03-07T02:40:21.140Z,13.65
2023-03-07T02:41:27.881Z,13.15
2023-03-07T02:42:34.954Z,12.73
2023-03-07T02:43:42.103Z,13.43
2023-03-07T02:44:46.848Z,13.30
2023-03-07T02:45:51.838Z,13.30
2023-03-07T02:46:54.432Z,14.23
2023-03-07T02:48:00.381Z,12.85
2023-03-07T02:49:06.031Z,13.70
2023-03-07T02:50:09.375Z,13.77
2023-03-07T02:51:14.795Z,14.77
2023-03-07T02:52:19.365Z,12.80
2023-03-07T02:53:21.943Z,14.80
2023-03-07T02:54:25.373Z,13.52
2023-03-07T02:55:28.280Z,14.77
2023-03-07T02:56:35.114Z,13.30
2023-03-07T02:57:37.705Z,13.55
2023-03-07T02:58:41.681Z,13.93
2023-03-07T02:59:44.231Z,14.88
2023-03-07T03:00:46.913Z,12.63
2023-03-07T03:01:50.216Z,14.73
2023-03-07T03:02:52.912Z,15.52
2023-03-07T03:03:56.139Z,14.63
2023-03-07T03:04:58.823Z,14.18
2023-03-07T03:06:01.407Z,14.52
2023-03-07T03:07:06.842Z,14.55
2023-03-07T03:08:10.571Z,14.15
2023-03-07T03:09:13.217Z,15.80
2023-03-07T03:10:16.534Z,13.50
2023-03-07T03:11:19.048Z,15.82
2023-03-07T03:12:21.729Z,16.15
2023-03-07T03:13:24.421Z,14.57
2023-03-07T03:14:27.075Z,14.27
2023-03-07T03:15:29.680Z,16.25
2023-03-07T03:16:32.777Z,14.30
2023-03-07T03:17:35.655Z,14.20
2023-03-07T03:18:39.077Z,14.73
2023-03-07T03:19:41.544Z,15.45
2023-03-07T03:20:45.940Z,13.15
2023-03-07T03:21:48.856Z,14.00
2023-03-07T03:22:52.826Z,14.80
2023-03-07T03:23:56.053Z,15.20
2023-03-07T03:24:58.561Z,15.80
2023-03-07T03:26:05.133Z,16.10
2023-03-07T03:27:08.884Z,15.20
2023-03-07T03:28:13.562Z,15.07
2023-03-07T03:29:16.076Z,15.40
2023-03-07T03:30:18.829Z,16.63
2023-03-07T03:31:21.367Z,15.02
2023-03-07T03:32:23.982Z,16.85
2023-03-07T03:33:29.181Z,17.27
2023-03-07T03:34:32.172Z,16.45
2023-03-07T03:35:34.761Z,15.88
2023-03-07T03:36:37.872Z,16.67
2023-03-07T03:37:43.592Z,16.77
2023-03-07T03:38:46.196Z,16.25
2023-03-07T03:39:49.097Z,17.10
2023-03-07T03:40:52.150Z,17.23
2023-03-07T03:41:54.765Z,16.95
2023-03-07T03:42:58.558Z,16.63
2023-03-07T03:44:01.587Z,17.65
2023-03-07T03:45:06.425Z,15.18
2023-03-07T03:46:09.393Z,16.60
2023-03-07T03:47:13.354Z,15.10
2023-03-07T03:48:16.094Z,15.43
2023-03-07T03:49:19.974Z,17.85
2023-03-07T03:50:25.507Z,20.08
2023-03-07T03:51:28.479Z,21.40
2023-03-07T03:52:31.720Z,21.15
2023-03-07T03:53:36.486Z,21.38
2023-03-07T03:54:38.986Z,18.58
2023-03-07T03:55:41.741Z,18.33
2023-03-07T03:56:44.616Z,19.20
2023-03-07T03:57:47.095Z,16.73
2023-03-07T03:58:52.024Z,16.58
2023-03-07T03:59:55.579Z,17.23
2023-03-07T04:00:58.430Z,16.55
2023-03-07T04:02:01.242Z,17.35
2023-03-07T04:03:05.017Z,16.77
2023-03-07T04:04:07.755Z,17.02
2023-03-07T04:05:10.313Z,17.80
2023-03-07T04:06:15.684Z,15.98
2023-03-07T04:07:18.346Z,16.08
2023-03-07T04:08:22.225Z,15.70
2023-03-07T04:09:24.836Z,16.75
2023-03-07T04:10:27.372Z,16.50
2023-03-07T04:11:30.230Z,18.08
2023-03-07T04:12:32.813Z,16.73
2023-03-07T04:13:36.275Z,17.33
2023-03-07T04:14:38.995Z,16.88
2023-03-07T04:15:42.206Z,17.05
2023-03-07T04:16:45.476Z,18.30
2023-03-07T04:17:47.969Z,15.70
2023-03-07T04:18:51.095Z,18.25
2023-03-07T04:19:53.702Z,17.30
2023-03-07T04:20:56.314Z,16.00
2023-03-07T04:21:58.800Z,16.52
2023-03-07T04:23:01.463Z,17.08
2023-03-07T04:24:04.290Z,18.38
2023-03-07T04:25:09.098Z,19.75
2023-03-07T04:26:12.395Z,19.05
2023-03-07T04:27:14.938Z,19.90
2023-03-07T04:28:18.196Z,19.85
2023-03-07T04:29:20.879Z,19.42
2023-03-07T04:30:35.709Z,17.63
2023-03-07T04:31:39.512Z,18.85
2023-03-07T04:32:42.940Z,19.38
2023-03-07T04:33:45.627Z,18.58
2023-03-07T04:34:48.092Z,19.13
2023-03-07T04:35:50.619Z,21.50
2023-03-07T04:36:53.191Z,19.88
2023-03-07T04:37:55.886Z,19.70
2023-03-07T04:38:58.483Z,20.10
2023-03-07T04:40:01.648Z,21.10
2023-03-07T04:41:05.222Z,20.45
2023-03-07T04:42:08.028Z,21.35
2023-03-07T04:43:12.251Z,20.90
2023-03-07T04:44:16.901Z,20.40
2023-03-07T04:45:19.591Z,19.60
2023-03-07T04:46:22.461Z,20.42
2023-03-07T04:47:25.366Z,21.17
2023-03-07T04:48:28.000Z,22.38
2023-03-07T04:49:30.640Z,20.80
2023-03-07T04:50:33.147Z,20.92
2023-03-07T04:51:35.689Z,22.73
2023-03-07T04:52:38.186Z,21.73
2023-03-07T04:53:40.978Z,22.65
2023-03-07T04:54:43.630Z,21.23
2023-03-07T04:55:46.295Z,18.98
2023-03-07T04:56:49.091Z,21.50
2023-03-07T04:57:52.106Z,20.35
2023-03-07T04:58:55.120Z,23.27
2023-03-07T04:59:57.631Z,21.30
2023-03-07T05:01:01.806Z,21.85
2023-03-07T05:02:04.388Z,20.35
2023-03-07T05:03:08.977Z,20.83
2023-03-07T05:04:11.399Z,22.45
2023-03-07T05:05:14.500Z,24.48
2023-03-07T05:06:18.384Z,22.40
2023-03-07T05:07:26.174Z,22.85
2023-03-07T05:08:29.092Z,24.65
2023-03-07T05:09:31.830Z,23.13
2023-03-07T05:10:36.739Z,21.30
2023-03-07T05:11:39.841Z,22.55
2023-03-07T05:12:43.650Z,20.92
2023-03-07T05:13:47.528Z,22.15
2023-03-07T05:14:53.371Z,23.40
2023-03-07T05:15:57.630Z,22.00
2023-03-07T05:17:00.919Z,21.10
2023-03-07T05:18:04.006Z,21.92
2023-03-07T05:19:06.860Z,22.48
2023-03-07T05:20:10.964Z,22.50
2023-03-07T05:21:13.654Z,22.70
2023-03-07T05:22:16.402Z,23.10
2023-03-07T05:23:19.995Z,23.98
2023-03-07T05:24:24.427Z,21.02
2023-03-07T05:25:27.046Z,22.35
2023-03-07T05:26:29.542Z,21.17
2023-03-07T05:27:32.189Z,22.15
2023-03-07T05:28:34.640Z,22.63
2023-03-07T05:29:37.816Z,21.45
2023-03-07T05:30:40.301Z,21.67
2023-03-07T05:31:42.782Z,22.73
2023-03-07T05:32:45.396Z,21.60
2023-03-07T05:33:49.470Z,20.48
2023-03-07T05:34:52.768Z,22.83
2023-03-07T05:36:00.281Z,21.95
2023-03-07T05:37:03.424Z,22.13
2023-03-07T05:38:06.524Z,22.40
2023-03-07T05:39:09.982Z,23.08
2023-03-07T05:40:14.120Z,20.83
2023-03-07T05:41:20.134Z,22.75
2023-03-07T05:42:22.562Z,21.27
2023-03-07T05:43:25.192Z,23.30
2023-03-07T05:44:27.835Z,21.70
2023-03-07T05:45:31.762Z,24.73
2023-03-07T05:46:35.606Z,21.52
2023-03-07T05:47:39.871Z,24.35
2023-03-07T05:48:44.553Z,22.02
2023-03-07T05:49:47.373Z,22.45
2023-03-07T05:50:49.883Z,23.00
2023-03-07T05:51:54.109Z,19.33
2023-03-07T05:52:57.632Z,19.58
2023-03-07T05:54:03.175Z,21.58
2023-03-07T05:55:07.268Z,21.00
2023-03-07T05:56:10.109Z,19.60
2023-03-07T05:57:13.446Z,20.55
2023-03-07T05:58:16.707Z,20.85
2023-03-07T05:59:21.160Z,19.88
2023-03-07T06:00:25.893Z,20.65
2023-03-07T06:01:32.475Z,22.05
2023-03-07T06:02:35.171Z,20.20
2023-03-07T06:03:37.865Z,21.15
2023-03-07T06:04:40.822Z,19.45
2023-03-07T06:05:43.705Z,19.13
2023-03-07T06:06:46.316Z,21.65
2023-03-07T06:07:49.901Z,18.02
2023-03-07T06:08:52.486Z,20.52
2023-03-07T06:09:55.370Z,20.63
2023-03-07T06:10:57.897Z,19.77
2023-03-07T06:12:01.040Z,21.42
2023-03-07T06:13:03.532Z,19.30
2023-03-07T06:14:06.283Z,21.88
2023-03-07T06:15:09.907Z,22.27
2023-03-07T06:16:12.596Z,20.60
2023-03-07T06:17:17.022Z,21.60
2023-03-07T06:18:19.855Z,21.23
2023-03-07T06:19:22.422Z,21.23
2023-03-07T06:20:26.382Z,18.80
2023-03-07T06:21:31.436Z,18.80
2023-03-07T06:22:37.816Z,17.60
2023-03-07T06:23:40.325Z,19.92
2023-03-07T06:24:48.209Z,19.17
2023-03-07T06:25:51.336Z,18.00
2023-03-07T06:26:54.000Z,17.95
2023-03-07T06:28:01.471Z,17.45
2023-03-07T06:29:06.144Z,17.48
2023-03-07T06:30:10.221Z,17.80
2023-03-07T06:31:14.962Z,17.05
2023-03-07T06:32:17.771Z,17.83
2023-03-07T06:33:20.729Z,17.15
2023-03-07T06:34:23.368Z,15.50
2023-03-07T06:35:26.765Z,17.13
2023-03-07T06:36:30.068Z,20.02
2023-03-07T06:37:35.682Z,18.80
2023-03-07T06:38:39.052Z,18.95
2023-03-07T06:39:41.723Z,18.63
2023-03-07T06:40:44.510Z,18.70
2023-03-07T06:41:51.411Z,17.30
2023-03-07T06:42:54.105Z,18.92
2023-03-07T06:43:56.636Z,17.83
2023-03-07T06:45:06.156Z,19.85
2023-03-07T06:46:10.599Z,20.23
2023-03-07T06:47:16.182Z,17.92
2023-03-07T06:48:18.824Z,19.80
2023-03-07T06:49:22.082Z,18.52
2023-03-07T06:50:34.696Z,19.00
2023-03-07T06:51:38.285Z,19.33
2023-03-07T06:52:41.897Z,20.27
2023-03-07T06:53:44.940Z,19.33
2023-03-07T06:54:47.545Z,17.08
2023-03-07T06:55:51.164Z,18.40
2023-03-07T06:56:55.216Z,20.63
2023-03-07T06:57:59.168Z,19.60
2023-03-07T06:59:01.846Z,18.30
2023-03-07T07:00:06.843Z,18.45
2023-03-07T07:01:18.747Z,18.77
2023-03-07T07:02:23.462Z,18.10
2023-03-07T07:03:27.185Z,19.45
2023-03-07T07:04:29.827Z,18.75
2023-03-07T07:05:32.642Z,20.50
2023-03-07T07:06:35.163Z,19.60
2023-03-07T07:07:38.447Z,19.67
2023-03-07T07:08:41.193Z,21.52
2023-03-07T07:09:44.884Z,21.05
2023-03-07T07:10:47.399Z,19.90
2023-03-07T07:11:49.879Z,17.73
2023-03-07T07:12:56.668Z,18.88
2023-03-07T07:13:59.523Z,18.95
2023-03-07T07:15:02.434Z,18.52
2023-03-07T07:16:08.975Z,19.83
2023-03-07T07:17:13.922Z,17.92
2023-03-07T07:18:16.408Z,19.45
2023-03-07T07:19:18.897Z,19.52
2023-03-07T07:20:23.249Z,17.75
2023-03-07T07:21:25.775Z,17.95
2023-03-07T07:22:28.214Z,19.58
2023-03-07T07:23:30.881Z,19.00
2023-03-07T07:24:34.672Z,18.67
2023-03-07T07:25:38.887Z,19.48
2023-03-07T07:26:41.454Z,18.85
2023-03-07T07:27:44.281Z,19.83
2023-03-07T07:28:47.151Z,18.50
2023-03-07T07:29:49.651Z,19.98
2023-03-07T07:30:52.662Z,19.50
2023-03-07T07:31:55.286Z,19.20
2023-03-07T07:32:58.390Z,19.05
2023-03-07T07:34:01.118Z,17.83
2023-03-07T07:35:06.161Z,20.85
2023-03-07T07:36:09.220Z,19.20
2023-03-07T07:37:12.456Z,22.25
2023-03-07T07:38:14.983Z,20.67
2023-03-07T07:39:18.381Z,20.83
2023-03-07T07:40:22.747Z,19.30
2023-03-07T07:41:25.454Z,18.73
2023-03-07T07:42:32.217Z,19.48
2023-03-07T07:44:01.136Z,19.30
2023-03-07T07:45:11.374Z,21.85
2023-03-07T07:46:13.946Z,18.48
2023-03-07T07:47:16.461Z,21.10
2023-03-07T07:48:19.020Z,20.20
2023-03-07T07:49:22.667Z,20.98
2023-03-07T07:50:25.885Z,20.13
2023-03-07T07:51:28.453Z,18.98
2023-03-07T07:52:31.045Z,20.40
2023-03-07T07:53:34.210Z,20.90
2023-03-07T07:54:36.832Z,20.17
2023-03-07T07:55:39.442Z,20.02
2023-03-07T07:56:42.161Z,18.88
2023-03-07T07:57:44.705Z,20.63
2023-03-07T07:58:48.383Z,19.50
2023-03-07T07:59:51.349Z,20.20
2023-03-07T08:00:53.952Z,20.05
2023-03-07T08:01:56.696Z,21.00
2023-03-07T08:02:59.584Z,19.48
2023-03-07T08:04:02.334Z,20.08
2023-03-07T08:05:07.814Z,18.17
2023-03-07T08:06:10.622Z,16.98
2023-03-07T08:07:14.534Z,17.13
2023-03-07T08:08:19.049Z,18.45
2023-03-07T08:09:21.503Z,16.20
2023-03-07T08:10:24.367Z,18.45
2023-03-07T08:11:27.198Z,17.02
2023-03-07T08:12:29.707Z,16.67
2023-03-07T08:13:32.417Z,16.00
2023-03-07T08:14:35.056Z,16.15
2023-03-07T08:15:37.861Z,16.33
2023-03-07T08:16:40.430Z,15.80
2023-03-07T08:17:44.200Z,18.38
2023-03-07T08:18:54.588Z,18.20
2023-03-07T08:20:01.888Z,18.33
2023-03-07T08:21:07.815Z,17.75
2023-03-07T08:22:10.340Z,18.67
2023-03-07T08:23:12.914Z,18.20
2023-03-07T08:24:15.591Z,18.02
2023-03-07T08:25:21.845Z,17.77
2023-03-07T08:26:25.031Z,18.23
2023-03-07T08:27:31.490Z,17.77
2023-03-07T08:28:34.242Z,18.52
2023-03-07T08:29:36.812Z,18.20
2023-03-07T08:30:39.313Z,19.63
2023-03-07T08:31:45.745Z,20.38
2023-03-07T08:32:52.322Z,19.92
2023-03-07T08:33:54.957Z,19.88
2023-03-07T08:34:57.881Z,21.08
2023-03-07T08:36:00.772Z,20.23
2023-03-07T08:37:03.537Z,19.15
2023-03-07T08:38:05.971Z,17.80
2023-03-07T08:39:08.400Z,19.38
2023-03-07T08:40:12.013Z,18.23
2023-03-07T08:41:14.596Z,18.08
2023-03-07T08:42:17.144Z,17.45
2023-03-07T08:43:19.834Z,17.65
2023-03-07T08:44:22.736Z,18.15
2023-03-07T08:45:25.671Z,18.05
2023-03-07T08:46:28.200Z,17.77
2023-03-07T08:47:30.619Z,17.35
2023-03-07T08:48:33.798Z,18.70
2023-03-07T08:49:36.425Z,18.67
2023-03-07T08:50:39.659Z,16.38
2023-03-07T08:51:42.125Z,17.13
2023-03-07T08:52:44.630Z,16.83
2023-03-07T08:53:47.418Z,17.50
2023-03-07T08:54:49.889Z,16.38
2023-03-07T08:55:52.565Z,14.10
2023-03-07T08:56:55.132Z,16.10
2023-03-07T08:57:57.739Z,16.13
2023-03-07T08:59:00.472Z,15.68
2023-03-07T09:00:03.531Z,16.02
2023-03-07T09:01:07.053Z,15.07
2023-03-07T09:02:12.571Z,15.40
2023-03-07T09:03:15.091Z,15.85
2023-03-07T09:04:17.703Z,14.80
2023-03-07T09:05:20.344Z,13.70
2023-03-07T09:06:23.237Z,15.43
2023-03-07T09:07:26.032Z,14.63
2023-03-07T09:08:29.795Z,15.23
2023-03-07T09:09:32.499Z,14.65
2023-03-07T09:10:35.837Z,14.88
2023-03-07T09:11:38.481Z,13.40
2023-03-07T09:12:41.156Z,14.18
2023-03-07T09:13:51.936Z,14.63
2023-03-07T09:14:55.876Z,14.63
2023-03-07T09:15:58.498Z,12.90
2023-03-07T09:17:01.070Z,13.35
2023-03-07T09:18:03.840Z,13.55
2023-03-07T09:19:06.390Z,15.18
2023-03-07T09:20:10.340Z,12.98
2023-03-07T09:21:13.101Z,13.93
2023-03-07T09:22:15.873Z,12.38
2023-03-07T09:23:18.456Z,14.25
2023-03-07T09:24:20.981Z,13.20
2023-03-07T09:25:24.003Z,12.90
2023-03-07T09:26:26.564Z,14.88
2023-03-07T09:27:29.153Z,14.07
2023-03-07T09:28:32.047Z,13.98
2023-03-07T09:29:34.763Z,12.48
2023-03-07T09:30:38.305Z,13.55
2023-03-07T09:31:41.606Z,13.68
2023-03-07T09:32:44.264Z,14.38
2023-03-07T09:33:47.268Z,14.52
2023-03-07T09:34:50.133Z,14.05
2023-03-07T09:35:52.640Z,13.20
2023-03-07T09:36:55.181Z,13.45
2023-03-07T09:37:57.688Z,13.35
2023-03-07T09:39:00.843Z,13.73
2023-03-07T09:40:08.539Z,13.48
2023-03-07T09:41:56.886Z,13.98
2023-03-07T09:43:14.144Z,13.50
2023-03-07T09:44:50.112Z,14.27
2023-03-07T09:46:53.220Z,14.55
2023-03-07T09:48:14.188Z,12.63
2023-03-07T09:49:38.691Z,14.18
2023-03-07T09:50:45.555Z,14.65
2023-03-07T09:51:52.695Z,13.63
2023-03-07T09:53:00.535Z,13.40
2023-03-07T09:54:24.889Z,12.80
2023-03-07T09:55:28.049Z,12.95
2023-03-07T09:56:53.552Z,12.65
2023-03-07T09:57:57.904Z,12.30
2023-03-07T09:59:20.429Z,12.73
2023-03-07T10:00:48.216Z,12.98
2023-03-07T10:02:01.671Z,13.10
2023-03-07T10:03:25.786Z,11.65
2023-03-07T10:04:33.510Z,12.73
2023-03-07T10:05:40.030Z,12.02
2023-03-07T10:06:43.934Z,11.80
2023-03-07T10:07:46.485Z,12.63
2023-03-07T10:08:49.066Z,13.52
2023-03-07T10:09:56.739Z,13.18
2023-03-07T10:11:24.865Z,13.02
2023-03-07T10:12:51.650Z,12.60
2023-03-07T10:14:18.599Z,12.30
2023-03-07T10:15:39.697Z,13.05
2023-03-07T10:17:00.363Z,12.70
2023-03-07T10:18:08.497Z,12.18
2023-03-07T10:19:25.684Z,13.38
2023-03-07T10:20:52.421Z,13.18
2023-03-07T10:22:03.970Z,12.90
2023-03-07T10:23:33.846Z,13.77
2023-03-07T10:24:56.277Z,12.93
2023-03-07T10:26:25.890Z,12.38
2023-03-07T10:27:30.838Z,12.75
2023-03-07T10:28:34.120Z,13.48
2023-03-07T10:29:46.624Z,15.40
2023-03-07T10:30:51.268Z,14.77
2023-03-07T10:32:02.873Z,14.35
2023-03-07T10:33:07.683Z,14.10
2023-03-07T10:34:27.063Z,15.82
2023-03-07T10:35:42.601Z,14.93
2023-03-07T10:36:57.369Z,14.70
2023-03-07T10:38:25.109Z,13.98
2023-03-07T10:39:34.064Z,14.93
2023-03-07T10:40:59.421Z,14.88
2023-03-07T10:42:01.944Z,14.30
2023-03-07T10:43:05.975Z,15.30
2023-03-07T10:44:17.539Z,14.93
2023-03-07T10:45:20.963Z,16.70
2023-03-07T10:46:33.906Z,16.35
2023-03-07T10:47:36.983Z,15.55
2023-03-07T10:48:42.941Z,15.65
2023-03-07T10:49:46.920Z,16.17
2023-03-07T10:51:24.774Z,16.98
2023-03-07T10:52:40.017Z,16.02
2023-03-07T10:53:43.100Z,17.00
2023-03-07T10:54:45.782Z,15.93
2023-03-07T10:55:48.622Z,17.02
2023-03-07T10:57:11.040Z,16.98
2023-03-07T10:58:20.068Z,16.35
2023-03-07T10:59:25.890Z,16.23
2023-03-07T11:00:28.930Z,16.73
2023-03-07T11:01:33.408Z,16.25
2023-03-07T11:02:40.388Z,15.90
2023-03-07T11:03:55.849Z,14.73
2023-03-07T11:04:59.772Z,16.58
2023-03-07T11:06:02.282Z,16.92
2023-03-07T11:07:04.943Z,16.98
2023-03-07T11:08:27.164Z,17.35
2023-03-07T11:09:30.426Z,15.68
2023-03-07T11:10:37.178Z,17.85
2023-03-07T11:11:39.858Z,15.85
2023-03-07T11:12:46.441Z,16.05
2023-03-07T11:14:14.969Z,17.33
2023-03-07T11:15:24.782Z,15.45
2023-03-07T11:16:27.398Z,16.35
2023-03-07T11:17:46.611Z,14.73
2023-03-07T11:18:49.267Z,15.55
2023-03-07T11:19:56.075Z,16.42
2023-03-07T11:20:59.485Z,16.02
2023-03-07T11:22:04.869Z,16.05
2023-03-07T11:23:25.925Z,17.35
2023-03-07T11:24:30.709Z,16.95
2023-03-07T11:25:36.347Z,16.52
2023-03-07T11:26:40.699Z,15.60
2023-03-07T11:27:45.827Z,16.73
2023-03-07T11:28:48.456Z,14.48
2023-03-07T11:30:46.853Z,15.90
2023-03-07T11:32:01.960Z,16.23
2023-03-07T11:33:28.677Z,16.48
2023-03-07T11:34:50.376Z,17.48
2023-03-07T11:36:00.359Z,16.77
2023-03-07T11:37:23.623Z,17.20
2023-03-07T11:38:52.242Z,17.50
2023-03-07T11:40:09.028Z,16.70
2023-03-07T11:41:28.664Z,17.70
2023-03-07T11:42:38.889Z,17.80
2023-03-07T11:43:47.891Z,17.73
2023-03-07T11:44:54.916Z,17.23
2023-03-07T11:46:11.943Z,17.00
2023-03-07T11:47:35.406Z,17.80
2023-03-07T11:48:58.858Z,18.55
2023-03-07T11:50:19.323Z,18.88
2023-03-07T11:51:30.326Z,17.30
2023-03-07T11:52:57.212Z,18.10
2023-03-07T11:54:24.041Z,18.38
2023-03-07T11:55:48.400Z,17.80
2023-03-07T11:56:53.557Z,19.42
2023-03-07T11:58:26.093Z,18.75
2023-03-07T11:59:47.226Z,18.98
2023-03-07T12:01:16.729Z,17.95
2023-03-07T12:02:56.415Z,17.60
2023-03-07T12:04:13.452Z,17.80
2023-03-07T12:05:47.160Z,16.95
2023-03-07T12:07:07.587Z,17.95
2023-03-07T12:08:41.128Z,17.92
2023-03-07T12:10:05.474Z,16.25
2023-03-07T12:11:08.306Z,17.73
2023-03-07T12:12:29.118Z,15.63
2023-03-07T12:13:32.145Z,17.38
2023-03-07T12:15:01.642Z,19.02
2023-03-07T12:16:07.113Z,18.15
2023-03-07T12:17:18.263Z,16.38
2023-03-07T12:18:51.040Z,17.42
2023-03-07T12:20:02.457Z,17.10
2023-03-07T12:21:34.191Z,18.80
2023-03-07T12:22:45.397Z,15.48
2023-03-07T12:23:50.268Z,17.20
2023-03-07T12:25:19.861Z,16.05
2023-03-07T12:27:02.252Z,17.60
2023-03-07T12:28:04.731Z,14.55
2023-03-07T12:29:34.128Z,15.18
2023-03-07T12:30:45.818Z,14.73
2023-03-07T12:31:51.777Z,14.52
2023-03-07T12:32:55.410Z,14.95
2023-03-07T12:34:07.810Z,15.23
2023-03-07T12:35:31.870Z,15.23
2023-03-07T12:36:43.212Z,15.43
2023-03-07T12:37:52.926Z,14.35
2023-03-07T12:39:05.843Z,13.77
2023-03-07T12:40:19.115Z,13.88
2023-03-07T12:41:43.800Z,14.43
2023-03-07T12:42:58.653Z,16.00
2023-03-07T12:44:07.274Z,14.70
2023-03-07T12:45:26.838Z,13.93
2023-03-07T12:46:32.899Z,14.18
2023-03-07T12:47:54.096Z,14.52
2023-03-07T12:48:56.568Z,13.50
2023-03-07T12:50:15.437Z,13.60
2023-03-07T12:51:33.749Z,14.30
2023-03-07T12:52:36.254Z,13.50
2023-03-07T12:54:03.843Z,14.65
2023-03-07T12:55:28.277Z,13.27
2023-03-07T12:56:54.626Z,13.35
2023-03-07T12:58:08.787Z,13.43
2023-03-07T12:59:17.706Z,12.75
2023-03-07T13:00:21.631Z,13.45
2023-03-07T13:01:37.166Z,13.38
2023-03-07T13:02:49.962Z,15.07
2023-03-07T13:04:04.470Z,14.45
2023-03-07T13:05:07.471Z,13.90
2023-03-07T13:06:16.061Z,13.52
2023-03-07T13:07:27.758Z,15.13
2023-03-07T13:08:30.441Z,13.90
2023-03-07T13:09:33.489Z,14.32
2023-03-07T13:10:36.635Z,13.70
2023-03-07T13:12:16.084Z,14.77
2023-03-07T13:13:45.971Z,13.23
2023-03-07T13:14:52.953Z,13.30
2023-03-07T13:16:04.766Z,14.27
2023-03-07T13:17:34.158Z,13.45
2023-03-07T13:18:37.033Z,13.18
2023-03-07T13:19:39.916Z,15.45
2023-03-07T13:20:43.799Z,13.35
2023-03-07T13:21:46.423Z,12.98
2023-03-07T13:22:48.985Z,12.43
2023-03-07T13:24:29.742Z,13.27
2023-03-07T13:25:41.991Z,13.38
2023-03-07T13:26:45.457Z,14.55
2023-03-07T13:27:55.729Z,13.52
2023-03-07T13:28:58.408Z,12.45
2023-03-07T13:30:17.001Z,13.35
2023-03-07T13:31:19.531Z,12.73
2023-03-07T13:32:56.191Z,13.27
2023-03-07T13:34:37.068Z,12.77
2023-03-07T13:35:46.566Z,11.52
2023-03-07T13:36:49.115Z,12.23
2023-03-07T13:38:20.594Z,12.63
2023-03-07T13:39:37.108Z,12.55
2023-03-07T13:40:46.660Z,12.77
2023-03-07T13:41:50.429Z,11.05
2023-03-07T13:42:53.270Z,11.85
2023-03-07T13:43:58.643Z,12.05
2023-03-07T13:45:01.288Z,12.77
2023-03-07T13:46:29.745Z,12.30
2023-03-07T13:47:44.766Z,11.85
2023-03-07T13:48:50.008Z,11.90
2023-03-07T13:49:52.714Z,12.02
2023-03-07T13:50:55.398Z,12.10
2023-03-07T13:52:37.744Z,11.88
2023-03-07T13:53:45.729Z,12.23
2023-03-07T13:54:50.449Z,12.65
2023-03-07T13:56:16.959Z,13.18
2023-03-07T13:57:20.777Z,12.23
2023-03-07T13:58:34.887Z,14.65
2023-03-07T13:59:37.618Z,12.50
2023-03-07T14:00:48.582Z,12.73
2023-03-07T14:01:55.258Z,12.63
2023-03-07T14:02:57.974Z,12.23
2023-03-07T14:04:32.941Z,12.63
2023-03-07T14:05:41.940Z,12.27
2023-03-07T14:06:58.430Z,11.95
2023-03-07T14:08:02.667Z,13.25
2023-03-07T14:09:07.074Z,12.20
2023-03-07T14:10:23.037Z,11.95
2023-03-07T14:11:48.009Z,12.13
2023-03-07T14:13:09.447Z,12.32
2023-03-07T14:14:25.823Z,10.70
2023-03-07T14:15:41.921Z,11.63
2023-03-07T14:16:52.814Z,11.18
2023-03-07T14:18:11.102Z,12.63
2023-03-07T14:19:22.699Z,11.32
2023-03-07T14:20:52.372Z,12.30
2023-03-07T14:22:04.074Z,9.95
2023-03-07T14:23:25.025Z,10.48
2023-03-07T14:24:46.632Z,11.38
2023-03-07T14:25:52.439Z,10.88
2023-03-07T14:27:00.377Z,12.38